sensor_id;sensor_type;location;lat;lon;timestamp;temperature;humidity
42245;DHT22;27912;51.828;5.688;2022-12-20T00:01:51;10.20;99.90
42245;DHT22;27912;51.828;5.688;2022-12-20T00:04:17;10.30;99.90
42245;DHT22;27912;51.828;5.688;2022-12-20T00:06:42;10.30;99.90
42245;DHT22;27912;51.828;5.688;2022-12-20T00:09:10;10.30;99.90
42245;DHT22;27912;51.828;5.688;2022-12-20T00:11:38;10.20;99.90
42245;DHT22;27912;51.828;5.688;2022-12-20T00:14:06;10.30;99.90
42245;DHT22;27912;51.828;5.688;2022-12-20T00:16:32;10.30;99.90
42245;DHT22;27912;51.828;5.688;2022-12-20T00:19:00;10.20;99.90
42245;DHT22;27912;51.828;5.688;2022-12-20T00:21:26;10.20;99.90
42245;DHT22;27912;51.828;5.688;2022-12-20T00:23:53;10.30;99.90
42245;DHT22;27912;51.828;5.688;2022-12-20T00:26:21;10.40;99.90
42245;DHT22;27912;51.828;5.688;2022-12-20T00:28:47;10.50;99.90
42245;DHT22;27912;51.828;5.688;2022-12-20T00:31:16;10.50;99.90
42245;DHT22;27912;51.828;5.688;2022-12-20T00:33:45;10.60;99.90
42245;DHT22;27912;51.828;5.688;2022-12-20T00:36:11;10.70;99.90
42245;DHT22;27912;51.828;5.688;2022-12-20T00:38:37;10.70;99.90
42245;DHT22;27912;51.828;5.688;2022-12-20T00:41:14;10.80;99.90
42245;DHT22;27912;51.828;5.688;2022-12-20T00:43:41;10.80;99.90
42245;DHT22;27912;51.828;5.688;2022-12-20T00:46:08;10.90;99.90
42245;DHT22;27912;51.828;5.688;2022-12-20T00:48:34;11.00;99.90
42245;DHT22;27912;51.828;5.688;2022-12-20T00:51:05;11.00;99.90
42245;DHT22;27912;51.828;5.688;2022-12-20T00:53:32;11.00;99.90
42245;DHT22;27912;51.828;5.688;2022-12-20T00:55:58;11.00;99.90
42245;DHT22;27912;51.828;5.688;2022-12-20T00:58:24;11.10;99.90
42245;DHT22;27912;51.828;5.688;2022-12-20T01:00:51;11.10;99.90
42245;DHT22;27912;51.828;5.688;2022-12-20T01:03:17;11.10;99.90
42245;DHT22;27912;51.828;5.688;2022-12-20T01:05:54;11.10;99.90
42245;DHT22;27912;51.828;5.688;2022-12-20T01:08:21;11.20;99.90
42245;DHT22;27912;51.828;5.688;2022-12-20T01:10:56;11.20;99.90
42245;DHT22;27912;51.828;5.688;2022-12-20T01:13:22;11.20;99.90
42245;DHT22;27912;51.828;5.688;2022-12-20T01:15:48;11.20;99.90
42245;DHT22;27912;51.828;5.688;2022-12-20T01:18:13;11.30;99.90
42245;DHT22;27912;51.828;5.688;2022-12-20T01:20:39;11.20;99.90
42245;DHT22;27912;51.828;5.688;2022-12-20T01:23:04;11.30;99.90
42245;DHT22;27912;51.828;5.688;2022-12-20T01:25:30;11.30;99.90
42245;DHT22;27912;51.828;5.688;2022-12-20T01:27:55;11.30;99.90
42245;DHT22;27912;51.828;5.688;2022-12-20T01:30:21;11.30;99.90
42245;DHT22;27912;51.828;5.688;2022-12-20T01:32:46;11.30;99.90
42245;DHT22;27912;51.828;5.688;2022-12-20T01:35:12;11.30;99.90
42245;DHT22;27912;51.828;5.688;2022-12-20T01:37:37;11.30;99.90
42245;DHT22;27912;51.828;5.688;2022-12-20T01:40:03;11.30;99.90
42245;DHT22;27912;51.828;5.688;2022-12-20T01:42:29;11.20;99.90
42245;DHT22;27912;51.828;5.688;2022-12-20T01:44:57;11.20;99.90
42245;DHT22;27912;51.828;5.688;2022-12-20T01:47:26;11.20;99.90
42245;DHT22;27912;51.828;5.688;2022-12-20T01:49:55;11.10;99.90
42245;DHT22;27912;51.828;5.688;2022-12-20T01:52:27;11.10;99.90
42245;DHT22;27912;51.828;5.688;2022-12-20T01:55:22;11.00;99.90
42245;DHT22;27912;51.828;5.688;2022-12-20T01:58:01;11.00;99.90
42245;DHT22;27912;51.828;5.688;2022-12-20T02:00:27;10.90;99.90
42245;DHT22;27912;51.828;5.688;2022-12-20T02:02:54;10.90;99.90
42245;DHT22;27912;51.828;5.688;2022-12-20T02:05:23;10.80;99.90
42245;DHT22;27912;51.828;5.688;2022-12-20T02:07:52;10.80;99.90
42245;DHT22;27912;51.828;5.688;2022-12-20T02:10:20;10.80;99.90
42245;DHT22;27912;51.828;5.688;2022-12-20T02:12:47;10.70;99.90
42245;DHT22;27912;51.828;5.688;2022-12-20T02:18:28;10.60;99.90
42245;DHT22;27912;51.828;5.688;2022-12-20T02:21:19;10.50;99.90
42245;DHT22;27912;51.828;5.688;2022-12-20T02:29:24;10.30;99.90
42245;DHT22;27912;51.828;5.688;2022-12-20T02:34:19;10.20;99.90
42245;DHT22;27912;51.828;5.688;2022-12-20T02:36:46;10.20;99.90
42245;DHT22;27912;51.828;5.688;2022-12-20T02:39:12;10.20;99.90
42245;DHT22;27912;51.828;5.688;2022-12-20T02:41:45;10.10;99.90
42245;DHT22;27912;51.828;5.688;2022-12-20T02:44:13;10.10;99.90
42245;DHT22;27912;51.828;5.688;2022-12-20T02:47:00;10.10;99.90
42245;DHT22;27912;51.828;5.688;2022-12-20T02:49:30;10.20;99.90
42245;DHT22;27912;51.828;5.688;2022-12-20T02:51:57;10.20;99.90
42245;DHT22;27912;51.828;5.688;2022-12-20T02:54:25;10.20;99.90
42245;DHT22;27912;51.828;5.688;2022-12-20T02:59:41;10.10;99.90
42245;DHT22;27912;51.828;5.688;2022-12-20T03:02:10;10.20;99.90
42245;DHT22;27912;51.828;5.688;2022-12-20T03:04:38;10.20;99.90
42245;DHT22;27912;51.828;5.688;2022-12-20T03:07:09;10.20;99.90
42245;DHT22;27912;51.828;5.688;2022-12-20T03:09:37;10.20;99.90
42245;DHT22;27912;51.828;5.688;2022-12-20T03:12:05;10.20;99.90
42245;DHT22;27912;51.828;5.688;2022-12-20T03:14:31;10.20;99.90
42245;DHT22;27912;51.828;5.688;2022-12-20T03:16:57;10.20;99.90
42245;DHT22;27912;51.828;5.688;2022-12-20T03:19:23;10.20;99.90
42245;DHT22;27912;51.828;5.688;2022-12-20T03:21:49;10.20;99.90
42245;DHT22;27912;51.828;5.688;2022-12-20T03:24:15;10.20;99.90
42245;DHT22;27912;51.828;5.688;2022-12-20T03:26:41;10.20;99.90
42245;DHT22;27912;51.828;5.688;2022-12-20T03:29:08;10.20;99.90
42245;DHT22;27912;51.828;5.688;2022-12-20T03:31:33;10.30;99.90
42245;DHT22;27912;51.828;5.688;2022-12-20T03:33:59;10.30;99.90
42245;DHT22;27912;51.828;5.688;2022-12-20T03:36:24;10.30;99.90
42245;DHT22;27912;51.828;5.688;2022-12-20T03:38:51;10.40;99.90
42245;DHT22;27912;51.828;5.688;2022-12-20T03:41:17;10.40;99.90
42245;DHT22;27912;51.828;5.688;2022-12-20T03:43:43;10.40;99.90
42245;DHT22;27912;51.828;5.688;2022-12-20T03:46:08;10.40;99.90
42245;DHT22;27912;51.828;5.688;2022-12-20T03:48:34;10.40;99.90
42245;DHT22;27912;51.828;5.688;2022-12-20T03:50:59;10.40;99.90
42245;DHT22;27912;51.828;5.688;2022-12-20T03:53:25;10.40;99.90
42245;DHT22;27912;51.828;5.688;2022-12-20T03:55:51;10.50;99.90
42245;DHT22;27912;51.828;5.688;2022-12-20T03:58:16;10.50;99.90
42245;DHT22;27912;51.828;5.688;2022-12-20T04:00:42;10.50;99.90
42245;DHT22;27912;51.828;5.688;2022-12-20T04:03:07;10.60;99.90
42245;DHT22;27912;51.828;5.688;2022-12-20T04:05:33;10.70;99.90
42245;DHT22;27912;51.828;5.688;2022-12-20T04:07:59;10.70;99.90
42245;DHT22;27912;51.828;5.688;2022-12-20T04:10:24;10.70;99.90
42245;DHT22;27912;51.828;5.688;2022-12-20T04:12:50;10.80;99.90
42245;DHT22;27912;51.828;5.688;2022-12-20T04:15:15;10.80;99.90
42245;DHT22;27912;51.828;5.688;2022-12-20T04:17:41;10.90;99.90
42245;DHT22;27912;51.828;5.688;2022-12-20T04:20:09;10.90;99.90
42245;DHT22;27912;51.828;5.688;2022-12-20T04:22:50;11.00;99.90
42245;DHT22;27912;51.828;5.688;2022-12-20T04:25:18;11.00;99.90
42245;DHT22;27912;51.828;5.688;2022-12-20T04:27:44;11.00;99.90
42245;DHT22;27912;51.828;5.688;2022-12-20T04:30:10;11.10;99.90
42245;DHT22;27912;51.828;5.688;2022-12-20T04:32:36;11.20;99.90
42245;DHT22;27912;51.828;5.688;2022-12-20T04:35:02;11.20;99.90
42245;DHT22;27912;51.828;5.688;2022-12-20T04:37:29;11.30;99.90
42245;DHT22;27912;51.828;5.688;2022-12-20T04:39:55;11.30;99.90
42245;DHT22;27912;51.828;5.688;2022-12-20T04:42:21;11.40;99.90
42245;DHT22;27912;51.828;5.688;2022-12-20T04:44:47;11.40;99.90
42245;DHT22;27912;51.828;5.688;2022-12-20T04:47:12;11.40;99.90
42245;DHT22;27912;51.828;5.688;2022-12-20T04:49:38;11.40;99.90
42245;DHT22;27912;51.828;5.688;2022-12-20T04:52:03;11.40;99.90
42245;DHT22;27912;51.828;5.688;2022-12-20T04:54:47;11.40;99.90
42245;DHT22;27912;51.828;5.688;2022-12-20T04:57:13;11.50;99.90
42245;DHT22;27912;51.828;5.688;2022-12-20T04:59:38;11.50;99.90
42245;DHT22;27912;51.828;5.688;2022-12-20T05:02:04;11.50;99.90
42245;DHT22;27912;51.828;5.688;2022-12-20T05:04:30;11.60;99.90
42245;DHT22;27912;51.828;5.688;2022-12-20T05:06:55;11.60;99.90
42245;DHT22;27912;51.828;5.688;2022-12-20T05:09:21;11.60;99.90
42245;DHT22;27912;51.828;5.688;2022-12-20T05:11:48;11.60;99.90
42245;DHT22;27912;51.828;5.688;2022-12-20T05:14:13;11.60;99.90
42245;DHT22;27912;51.828;5.688;2022-12-20T05:16:39;11.60;99.90
42245;DHT22;27912;51.828;5.688;2022-12-20T05:19:05;11.60;99.90
42245;DHT22;27912;51.828;5.688;2022-12-20T05:21:30;11.60;99.90
42245;DHT22;27912;51.828;5.688;2022-12-20T05:24:14;11.60;99.90
42245;DHT22;27912;51.828;5.688;2022-12-20T05:26:58;11.60;99.90
42245;DHT22;27912;51.828;5.688;2022-12-20T05:29:24;11.50;99.90
42245;DHT22;27912;51.828;5.688;2022-12-20T05:31:49;11.50;99.90
42245;DHT22;27912;51.828;5.688;2022-12-20T05:34:15;11.50;99.90
42245;DHT22;27912;51.828;5.688;2022-12-20T05:36:41;11.50;99.90
42245;DHT22;27912;51.828;5.688;2022-12-20T05:39:06;11.40;99.90
42245;DHT22;27912;51.828;5.688;2022-12-20T05:41:32;11.50;99.90
42245;DHT22;27912;51.828;5.688;2022-12-20T05:43:57;11.50;99.90
42245;DHT22;27912;51.828;5.688;2022-12-20T05:46:23;11.50;99.90
42245;DHT22;27912;51.828;5.688;2022-12-20T05:48:48;11.40;99.90
42245;DHT22;27912;51.828;5.688;2022-12-20T05:51:14;11.40;99.90
42245;DHT22;27912;51.828;5.688;2022-12-20T05:53:39;11.40;99.90
42245;DHT22;27912;51.828;5.688;2022-12-20T05:56:05;11.50;99.90
42245;DHT22;27912;51.828;5.688;2022-12-20T05:58:31;11.50;99.90
42245;DHT22;27912;51.828;5.688;2022-12-20T06:00:59;11.50;99.90
42245;DHT22;27912;51.828;5.688;2022-12-20T06:03:24;11.50;99.90
42245;DHT22;27912;51.828;5.688;2022-12-20T06:05:50;11.50;99.90
42245;DHT22;27912;51.828;5.688;2022-12-20T06:08:16;11.50;99.90
42245;DHT22;27912;51.828;5.688;2022-12-20T06:10:41;11.50;99.90
42245;DHT22;27912;51.828;5.688;2022-12-20T06:13:08;11.50;99.90
42245;DHT22;27912;51.828;5.688;2022-12-20T06:15:34;11.50;99.90
42245;DHT22;27912;51.828;5.688;2022-12-20T06:18:00;11.50;99.90
42245;DHT22;27912;51.828;5.688;2022-12-20T06:20:26;11.50;99.90
42245;DHT22;27912;51.828;5.688;2022-12-20T06:22:52;11.50;99.90
42245;DHT22;27912;51.828;5.688;2022-12-20T06:25:18;11.50;99.90
42245;DHT22;27912;51.828;5.688;2022-12-20T06:27:44;11.50;99.90
42245;DHT22;27912;51.828;5.688;2022-12-20T06:30:11;11.50;99.90
42245;DHT22;27912;51.828;5.688;2022-12-20T06:32:36;11.50;99.90
42245;DHT22;27912;51.828;5.688;2022-12-20T06:35:03;11.50;99.90
42245;DHT22;27912;51.828;5.688;2022-12-20T06:37:29;11.50;99.90
42245;DHT22;27912;51.828;5.688;2022-12-20T06:39:54;11.50;99.90
42245;DHT22;27912;51.828;5.688;2022-12-20T06:42:20;11.50;99.90
42245;DHT22;27912;51.828;5.688;2022-12-20T06:44:45;11.50;99.90
42245;DHT22;27912;51.828;5.688;2022-12-20T06:47:11;11.50;99.90
42245;DHT22;27912;51.828;5.688;2022-12-20T06:49:36;11.50;99.90
42245;DHT22;27912;51.828;5.688;2022-12-20T06:52:02;11.40;99.90
42245;DHT22;27912;51.828;5.688;2022-12-20T06:54:28;11.40;99.90
42245;DHT22;27912;51.828;5.688;2022-12-20T06:56:54;11.30;99.90
42245;DHT22;27912;51.828;5.688;2022-12-20T06:59:20;11.30;99.90
42245;DHT22;27912;51.828;5.688;2022-12-20T07:01:45;11.30;99.90
42245;DHT22;27912;51.828;5.688;2022-12-20T07:04:11;11.30;99.90
42245;DHT22;27912;51.828;5.688;2022-12-20T07:06:36;11.20;99.90
42245;DHT22;27912;51.828;5.688;2022-12-20T07:09:02;11.20;99.90
42245;DHT22;27912;51.828;5.688;2022-12-20T07:11:28;11.20;99.90
42245;DHT22;27912;51.828;5.688;2022-12-20T07:13:54;11.20;99.90
42245;DHT22;27912;51.828;5.688;2022-12-20T07:16:21;11.20;99.90
42245;DHT22;27912;51.828;5.688;2022-12-20T07:18:51;11.20;99.90
42245;DHT22;27912;51.828;5.688;2022-12-20T07:21:17;11.20;99.90
42245;DHT22;27912;51.828;5.688;2022-12-20T07:23:44;11.10;99.90
42245;DHT22;27912;51.828;5.688;2022-12-20T07:26:09;11.10;99.90
42245;DHT22;27912;51.828;5.688;2022-12-20T07:28:35;11.10;99.90
42245;DHT22;27912;51.828;5.688;2022-12-20T07:31:01;11.10;99.90
42245;DHT22;27912;51.828;5.688;2022-12-20T07:33:27;11.10;99.90
42245;DHT22;27912;51.828;5.688;2022-12-20T07:36:20;11.00;99.90
42245;DHT22;27912;51.828;5.688;2022-12-20T07:38:44;11.10;99.90
42245;DHT22;27912;51.828;5.688;2022-12-20T07:41:13;11.10;99.90
42245;DHT22;27912;51.828;5.688;2022-12-20T07:43:39;11.00;99.90
42245;DHT22;27912;51.828;5.688;2022-12-20T07:46:05;11.10;99.90
42245;DHT22;27912;51.828;5.688;2022-12-20T07:48:31;11.10;99.90
42245;DHT22;27912;51.828;5.688;2022-12-20T07:51:05;11.10;99.90
42245;DHT22;27912;51.828;5.688;2022-12-20T07:53:33;11.10;99.90
42245;DHT22;27912;51.828;5.688;2022-12-20T07:56:01;11.20;99.90
42245;DHT22;27912;51.828;5.688;2022-12-20T07:58:29;11.20;99.90
42245;DHT22;27912;51.828;5.688;2022-12-20T08:00:56;11.20;99.90
42245;DHT22;27912;51.828;5.688;2022-12-20T08:03:27;11.20;99.90
42245;DHT22;27912;51.828;5.688;2022-12-20T08:05:57;11.20;99.90
42245;DHT22;27912;51.828;5.688;2022-12-20T08:08:23;11.20;99.90
42245;DHT22;27912;51.828;5.688;2022-12-20T08:10:50;11.20;99.90
42245;DHT22;27912;51.828;5.688;2022-12-20T08:13:16;11.20;99.90
42245;DHT22;27912;51.828;5.688;2022-12-20T08:15:42;11.20;99.90
42245;DHT22;27912;51.828;5.688;2022-12-20T08:18:07;11.20;99.90
42245;DHT22;27912;51.828;5.688;2022-12-20T08:20:33;11.20;99.90
42245;DHT22;27912;51.828;5.688;2022-12-20T08:22:58;11.20;99.90
42245;DHT22;27912;51.828;5.688;2022-12-20T08:25:24;11.20;99.90
42245;DHT22;27912;51.828;5.688;2022-12-20T08:27:50;11.20;99.90
42245;DHT22;27912;51.828;5.688;2022-12-20T08:30:16;11.20;99.90
42245;DHT22;27912;51.828;5.688;2022-12-20T08:32:41;11.30;99.90
42245;DHT22;27912;51.828;5.688;2022-12-20T08:35:07;11.30;99.90
42245;DHT22;27912;51.828;5.688;2022-12-20T08:37:33;11.30;99.90
42245;DHT22;27912;51.828;5.688;2022-12-20T08:39:59;11.30;99.90
42245;DHT22;27912;51.828;5.688;2022-12-20T08:42:25;11.30;99.90
42245;DHT22;27912;51.828;5.688;2022-12-20T08:44:51;11.30;99.90
42245;DHT22;27912;51.828;5.688;2022-12-20T08:47:16;11.30;99.90
42245;DHT22;27912;51.828;5.688;2022-12-20T08:49:42;11.20;99.90
42245;DHT22;27912;51.828;5.688;2022-12-20T08:52:08;11.20;99.90
42245;DHT22;27912;51.828;5.688;2022-12-20T08:54:33;11.20;99.90
42245;DHT22;27912;51.828;5.688;2022-12-20T08:56:59;11.10;99.90
42245;DHT22;27912;51.828;5.688;2022-12-20T08:59:24;11.10;99.90
42245;DHT22;27912;51.828;5.688;2022-12-20T09:01:51;11.10;99.90
42245;DHT22;27912;51.828;5.688;2022-12-20T09:04:17;11.10;99.90
42245;DHT22;27912;51.828;5.688;2022-12-20T09:06:43;11.00;99.90
42245;DHT22;27912;51.828;5.688;2022-12-20T09:09:08;11.00;99.90
42245;DHT22;27912;51.828;5.688;2022-12-20T09:11:34;11.00;99.90
42245;DHT22;27912;51.828;5.688;2022-12-20T09:14:00;10.90;99.90
42245;DHT22;27912;51.828;5.688;2022-12-20T09:16:28;10.90;99.90
42245;DHT22;27912;51.828;5.688;2022-12-20T09:18:56;10.90;99.90
42245;DHT22;27912;51.828;5.688;2022-12-20T09:21:22;10.90;99.90
42245;DHT22;27912;51.828;5.688;2022-12-20T09:23:51;10.80;99.90
42245;DHT22;27912;51.828;5.688;2022-12-20T09:26:19;10.80;99.90
42245;DHT22;27912;51.828;5.688;2022-12-20T09:28:46;10.80;99.90
42245;DHT22;27912;51.828;5.688;2022-12-20T09:31:14;10.80;99.90
42245;DHT22;27912;51.828;5.688;2022-12-20T09:33:42;10.80;99.90
42245;DHT22;27912;51.828;5.688;2022-12-20T09:36:13;10.80;99.90
42245;DHT22;27912;51.828;5.688;2022-12-20T09:38:39;10.80;99.90
42245;DHT22;27912;51.828;5.688;2022-12-20T09:41:07;10.90;99.90
42245;DHT22;27912;51.828;5.688;2022-12-20T09:43:34;10.90;99.90
42245;DHT22;27912;51.828;5.688;2022-12-20T09:46:02;10.90;99.90
42245;DHT22;27912;51.828;5.688;2022-12-20T09:48:31;10.90;99.90
42245;DHT22;27912;51.828;5.688;2022-12-20T09:56:35;10.90;99.90
42245;DHT22;27912;51.828;5.688;2022-12-20T09:59:17;10.80;99.90
42245;DHT22;27912;51.828;5.688;2022-12-20T10:01:45;10.90;99.90
42245;DHT22;27912;51.828;5.688;2022-12-20T10:04:27;10.90;99.90
42245;DHT22;27912;51.828;5.688;2022-12-20T10:09:53;10.90;99.90
42245;DHT22;27912;51.828;5.688;2022-12-20T10:15:03;10.90;99.90
42245;DHT22;27912;51.828;5.688;2022-12-20T10:17:59;10.80;99.90
42245;DHT22;27912;51.828;5.688;2022-12-20T10:23:15;10.80;99.90
42245;DHT22;27912;51.828;5.688;2022-12-20T10:25:42;10.80;99.90
42245;DHT22;27912;51.828;5.688;2022-12-20T10:28:14;10.70;99.90
42245;DHT22;27912;51.828;5.688;2022-12-20T10:30:40;10.80;99.90
42245;DHT22;27912;51.828;5.688;2022-12-20T10:33:18;10.80;99.90
42245;DHT22;27912;51.828;5.688;2022-12-20T10:35:45;10.80;99.90
42245;DHT22;27912;51.828;5.688;2022-12-20T10:38:12;10.80;99.90
42245;DHT22;27912;51.828;5.688;2022-12-20T10:41:03;10.90;99.90
42245;DHT22;27912;51.828;5.688;2022-12-20T10:43:42;10.90;99.90
42245;DHT22;27912;51.828;5.688;2022-12-20T10:46:09;10.90;99.90
42245;DHT22;27912;51.828;5.688;2022-12-20T10:48:40;11.00;99.90
42245;DHT22;27912;51.828;5.688;2022-12-20T10:53:35;11.00;99.90
42245;DHT22;27912;51.828;5.688;2022-12-20T10:56:17;11.00;99.90
42245;DHT22;27912;51.828;5.688;2022-12-20T10:58:52;11.00;99.90
42245;DHT22;27912;51.828;5.688;2022-12-20T11:01:19;11.00;99.90
42245;DHT22;27912;51.828;5.688;2022-12-20T11:06:24;11.00;99.90
42245;DHT22;27912;51.828;5.688;2022-12-20T11:08:50;11.00;99.90
42245;DHT22;27912;51.828;5.688;2022-12-20T11:11:21;11.00;99.90
42245;DHT22;27912;51.828;5.688;2022-12-20T11:13:48;11.00;99.90
42245;DHT22;27912;51.828;5.688;2022-12-20T11:16:32;11.00;99.90
42245;DHT22;27912;51.828;5.688;2022-12-20T11:22:06;11.20;99.90
42245;DHT22;27912;51.828;5.688;2022-12-20T11:24:41;11.10;99.90
42245;DHT22;27912;51.828;5.688;2022-12-20T11:27:19;11.20;99.90
42245;DHT22;27912;51.828;5.688;2022-12-20T11:30:16;11.20;99.90
42245;DHT22;27912;51.828;5.688;2022-12-20T11:38:29;11.20;99.90
42245;DHT22;27912;51.828;5.688;2022-12-20T11:41:10;11.30;99.90
42245;DHT22;27912;51.828;5.688;2022-12-20T11:49:02;11.20;99.90
42245;DHT22;27912;51.828;5.688;2022-12-20T11:51:48;11.20;99.90
42245;DHT22;27912;51.828;5.688;2022-12-20T11:54:29;11.20;99.90
42245;DHT22;27912;51.828;5.688;2022-12-20T11:57:04;11.20;99.90
42245;DHT22;27912;51.828;5.688;2022-12-20T11:59:36;11.20;99.90
42245;DHT22;27912;51.828;5.688;2022-12-20T12:02:09;11.30;99.90
42245;DHT22;27912;51.828;5.688;2022-12-20T12:04:50;11.30;99.90
42245;DHT22;27912;51.828;5.688;2022-12-20T12:07:30;11.30;99.90
42245;DHT22;27912;51.828;5.688;2022-12-20T12:13:13;11.30;99.90
42245;DHT22;27912;51.828;5.688;2022-12-20T12:16:08;11.30;99.90
42245;DHT22;27912;51.828;5.688;2022-12-20T12:18:36;11.30;99.90
42245;DHT22;27912;51.828;5.688;2022-12-20T12:21:10;11.30;99.90
42245;DHT22;27912;51.828;5.688;2022-12-20T12:24:09;11.30;99.90
42245;DHT22;27912;51.828;5.688;2022-12-20T12:26:38;11.30;99.90
42245;DHT22;27912;51.828;5.688;2022-12-20T12:31:41;11.20;99.90
42245;DHT22;27912;51.828;5.688;2022-12-20T12:37:19;11.20;99.90
42245;DHT22;27912;51.828;5.688;2022-12-20T12:40:24;11.20;99.90
42245;DHT22;27912;51.828;5.688;2022-12-20T12:45:55;11.20;99.90
42245;DHT22;27912;51.828;5.688;2022-12-20T12:48:26;11.20;99.90
42245;DHT22;27912;51.828;5.688;2022-12-20T12:50:55;11.20;99.90
42245;DHT22;27912;51.828;5.688;2022-12-20T12:53:52;11.20;99.90
42245;DHT22;27912;51.828;5.688;2022-12-20T12:59:26;11.20;99.90
42245;DHT22;27912;51.828;5.688;2022-12-20T13:04:59;11.20;99.90
42245;DHT22;27912;51.828;5.688;2022-12-20T13:09:58;11.20;99.90
42245;DHT22;27912;51.828;5.688;2022-12-20T13:17:52;11.20;99.90
42245;DHT22;27912;51.828;5.688;2022-12-20T13:20:29;11.20;99.90
42245;DHT22;27912;51.828;5.688;2022-12-20T13:25:34;11.20;99.90
42245;DHT22;27912;51.828;5.688;2022-12-20T13:33:46;11.20;99.90
42245;DHT22;27912;51.828;5.688;2022-12-20T13:38:52;11.20;99.90
42245;DHT22;27912;51.828;5.688;2022-12-20T13:44:21;11.20;99.90
42245;DHT22;27912;51.828;5.688;2022-12-20T13:46:56;11.20;99.90
42245;DHT22;27912;51.828;5.688;2022-12-20T13:49:27;11.20;99.90
42245;DHT22;27912;51.828;5.688;2022-12-20T13:52:13;11.10;99.90
42245;DHT22;27912;51.828;5.688;2022-12-20T13:54:43;11.20;99.90
42245;DHT22;27912;51.828;5.688;2022-12-20T13:57:14;11.10;99.90
42245;DHT22;27912;51.828;5.688;2022-12-20T13:59:45;11.10;99.90
42245;DHT22;27912;51.828;5.688;2022-12-20T14:02:20;11.10;99.90
42245;DHT22;27912;51.828;5.688;2022-12-20T14:04:55;11.10;99.90
42245;DHT22;27912;51.828;5.688;2022-12-20T14:07:21;11.10;99.90
42245;DHT22;27912;51.828;5.688;2022-12-20T14:09:55;11.10;99.90
42245;DHT22;27912;51.828;5.688;2022-12-20T14:12:20;11.10;99.90
42245;DHT22;27912;51.828;5.688;2022-12-20T14:14:48;11.10;99.90
42245;DHT22;27912;51.828;5.688;2022-12-20T14:17:29;11.10;99.90
42245;DHT22;27912;51.828;5.688;2022-12-20T14:22:30;11.10;99.90
42245;DHT22;27912;51.828;5.688;2022-12-20T14:24:56;11.10;99.90
42245;DHT22;27912;51.828;5.688;2022-12-20T14:27:23;11.10;99.90
42245;DHT22;27912;51.828;5.688;2022-12-20T14:29:51;11.10;99.90
42245;DHT22;27912;51.828;5.688;2022-12-20T14:32:20;11.10;99.90
42245;DHT22;27912;51.828;5.688;2022-12-20T14:34:47;11.10;99.90
42245;DHT22;27912;51.828;5.688;2022-12-20T14:37:39;11.10;99.90
42245;DHT22;27912;51.828;5.688;2022-12-20T14:42:36;11.10;99.90
42245;DHT22;27912;51.828;5.688;2022-12-20T14:45:23;11.10;99.90
42245;DHT22;27912;51.828;5.688;2022-12-20T14:48:13;11.00;99.90
42245;DHT22;27912;51.828;5.688;2022-12-20T14:50:51;11.10;99.90
42245;DHT22;27912;51.828;5.688;2022-12-20T14:53:20;11.00;99.90
42245;DHT22;27912;51.828;5.688;2022-12-20T14:55:47;11.00;99.90
42245;DHT22;27912;51.828;5.688;2022-12-20T14:58:28;11.00;99.90
42245;DHT22;27912;51.828;5.688;2022-12-20T15:00:57;11.00;99.90
42245;DHT22;27912;51.828;5.688;2022-12-20T15:03:23;11.00;99.90
42245;DHT22;27912;51.828;5.688;2022-12-20T15:05:51;11.00;99.90
42245;DHT22;27912;51.828;5.688;2022-12-20T15:10:51;11.00;99.90
42245;DHT22;27912;51.828;5.688;2022-12-20T15:13:44;10.90;99.90
42245;DHT22;27912;51.828;5.688;2022-12-20T15:18:41;10.90;99.90
42245;DHT22;27912;51.828;5.688;2022-12-20T15:21:16;10.90;99.90
42245;DHT22;27912;51.828;5.688;2022-12-20T15:23:51;10.90;99.90
42245;DHT22;27912;51.828;5.688;2022-12-20T15:26:19;10.90;99.90
42245;DHT22;27912;51.828;5.688;2022-12-20T15:28:45;10.90;99.90
42245;DHT22;27912;51.828;5.688;2022-12-20T15:31:13;10.80;99.90
42245;DHT22;27912;51.828;5.688;2022-12-20T15:33:40;10.80;99.90
42245;DHT22;27912;51.828;5.688;2022-12-20T15:36:15;10.80;99.90
42245;DHT22;27912;51.828;5.688;2022-12-20T15:38:41;10.80;99.90
42245;DHT22;27912;51.828;5.688;2022-12-20T15:41:20;10.80;99.90
42245;DHT22;27912;51.828;5.688;2022-12-20T15:43:47;10.80;99.90
42245;DHT22;27912;51.828;5.688;2022-12-20T15:48:56;10.80;99.90
42245;DHT22;27912;51.828;5.688;2022-12-20T15:51:31;10.80;99.90
42245;DHT22;27912;51.828;5.688;2022-12-20T15:53:58;10.80;99.90
42245;DHT22;27912;51.828;5.688;2022-12-20T15:56:25;10.80;99.90
42245;DHT22;27912;51.828;5.688;2022-12-20T15:58:51;10.70;99.90
42245;DHT22;27912;51.828;5.688;2022-12-20T16:01:29;10.70;99.90
42245;DHT22;27912;51.828;5.688;2022-12-20T16:03:56;10.80;99.90
42245;DHT22;27912;51.828;5.688;2022-12-20T16:06:21;10.70;99.90
42245;DHT22;27912;51.828;5.688;2022-12-20T16:08:47;10.70;99.90
42245;DHT22;27912;51.828;5.688;2022-12-20T16:11:21;10.80;99.90
42245;DHT22;27912;51.828;5.688;2022-12-20T16:13:47;10.80;99.90
42245;DHT22;27912;51.828;5.688;2022-12-20T16:16:18;10.80;99.90
42245;DHT22;27912;51.828;5.688;2022-12-20T16:18:44;10.80;99.90
42245;DHT22;27912;51.828;5.688;2022-12-20T16:21:34;10.90;99.90
42245;DHT22;27912;51.828;5.688;2022-12-20T16:24:01;10.90;99.90
42245;DHT22;27912;51.828;5.688;2022-12-20T16:26:27;10.80;99.90
42245;DHT22;27912;51.828;5.688;2022-12-20T16:28:54;10.90;99.90
42245;DHT22;27912;51.828;5.688;2022-12-20T16:31:33;10.90;99.90
42245;DHT22;27912;51.828;5.688;2022-12-20T16:34:01;10.90;99.90
42245;DHT22;27912;51.828;5.688;2022-12-20T16:36:28;10.90;99.90
42245;DHT22;27912;51.828;5.688;2022-12-20T16:38:54;10.90;99.90
42245;DHT22;27912;51.828;5.688;2022-12-20T16:41:23;10.90;99.90
42245;DHT22;27912;51.828;5.688;2022-12-20T16:43:49;10.90;99.90
42245;DHT22;27912;51.828;5.688;2022-12-20T16:46:18;10.90;99.90
42245;DHT22;27912;51.828;5.688;2022-12-20T16:48:45;10.90;99.90
42245;DHT22;27912;51.828;5.688;2022-12-20T16:51:39;10.90;99.90
42245;DHT22;27912;51.828;5.688;2022-12-20T16:54:13;10.80;99.90
42245;DHT22;27912;51.828;5.688;2022-12-20T16:56:40;10.80;99.90
42245;DHT22;27912;51.828;5.688;2022-12-20T16:59:06;10.70;99.90
42245;DHT22;27912;51.828;5.688;2022-12-20T17:01:33;10.70;99.90
42245;DHT22;27912;51.828;5.688;2022-12-20T17:04:00;10.70;99.90
42245;DHT22;27912;51.828;5.688;2022-12-20T17:06:26;10.60;99.90
42245;DHT22;27912;51.828;5.688;2022-12-20T17:08:51;10.60;99.90
42245;DHT22;27912;51.828;5.688;2022-12-20T17:13:50;10.60;99.90
42245;DHT22;27912;51.828;5.688;2022-12-20T17:16:16;10.60;99.90
42245;DHT22;27912;51.828;5.688;2022-12-20T17:18:45;10.60;99.90
42245;DHT22;27912;51.828;5.688;2022-12-20T17:24:19;10.60;99.90
42245;DHT22;27912;51.828;5.688;2022-12-20T17:26:45;10.60;99.90
42245;DHT22;27912;51.828;5.688;2022-12-20T17:29:11;10.60;99.90